sensor_id;sensor_type;location;lat;lon;timestamp;temperature;humidity
18906;DHT22;9585;51.018;4.282;2022-11-09T00:01:43;13.40;99.90
18906;DHT22;9585;51.018;4.282;2022-11-09T00:04:10;13.40;99.90
18906;DHT22;9585;51.018;4.282;2022-11-09T00:06:38;13.30;99.90
18906;DHT22;9585;51.018;4.282;2022-11-09T00:09:06;13.30;99.90
18906;DHT22;9585;51.018;4.282;2022-11-09T00:11:35;13.30;99.90
18906;DHT22;9585;51.018;4.282;2022-11-09T00:14:04;13.30;99.90
18906;DHT22;9585;51.018;4.282;2022-11-09T00:16:31;13.20;99.90
18906;DHT22;9585;51.018;4.282;2022-11-09T00:18:59;13.20;99.90
18906;DHT22;9585;51.018;4.282;2022-11-09T00:21:26;13.10;99.90
18906;DHT22;9585;51.018;4.282;2022-11-09T00:23:53;13.20;99.90
18906;DHT22;9585;51.018;4.282;2022-11-09T00:26:20;13.20;99.90
18906;DHT22;9585;51.018;4.282;2022-11-09T00:28:48;13.10;99.90
18906;DHT22;9585;51.018;4.282;2022-11-09T00:31:19;13.10;99.90
18906;DHT22;9585;51.018;4.282;2022-11-09T00:33:49;13.10;99.90
18906;DHT22;9585;51.018;4.282;2022-11-09T00:36:17;13.10;99.90
18906;DHT22;9585;51.018;4.282;2022-11-09T00:38:47;13.10;99.90
18906;DHT22;9585;51.018;4.282;2022-11-09T00:41:15;13.00;99.90
18906;DHT22;9585;51.018;4.282;2022-11-09T00:43:43;13.00;99.90
18906;DHT22;9585;51.018;4.282;2022-11-09T00:46:12;13.00;99.90
18906;DHT22;9585;51.018;4.282;2022-11-09T00:48:41;13.00;99.90
18906;DHT22;9585;51.018;4.282;2022-11-09T00:51:09;12.90;99.90
18906;DHT22;9585;51.018;4.282;2022-11-09T00:53:37;12.90;99.90
18906;DHT22;9585;51.018;4.282;2022-11-09T00:56:06;12.90;99.90
18906;DHT22;9585;51.018;4.282;2022-11-09T00:58:35;12.90;99.90
18906;DHT22;9585;51.018;4.282;2022-11-09T01:01:06;12.80;99.90
18906;DHT22;9585;51.018;4.282;2022-11-09T01:03:33;12.80;99.90
18906;DHT22;9585;51.018;4.282;2022-11-09T01:06:03;12.70;99.90
18906;DHT22;9585;51.018;4.282;2022-11-09T01:08:31;12.70;99.90
18906;DHT22;9585;51.018;4.282;2022-11-09T01:11:04;12.70;99.90
18906;DHT22;9585;51.018;4.282;2022-11-09T01:13:31;12.70;99.90
18906;DHT22;9585;51.018;4.282;2022-11-09T01:16:02;12.70;99.90
18906;DHT22;9585;51.018;4.282;2022-11-09T01:18:30;12.70;99.90
18906;DHT22;9585;51.018;4.282;2022-11-09T01:20:57;12.70;99.90
18906;DHT22;9585;51.018;4.282;2022-11-09T01:23:26;12.70;99.90
18906;DHT22;9585;51.018;4.282;2022-11-09T01:25:57;12.70;99.90
18906;DHT22;9585;51.018;4.282;2022-11-09T01:28:24;12.70;99.90
18906;DHT22;9585;51.018;4.282;2022-11-09T01:30:52;12.70;99.90
18906;DHT22;9585;51.018;4.282;2022-11-09T01:33:20;12.70;99.90
18906;DHT22;9585;51.018;4.282;2022-11-09T01:35:47;12.60;99.90
18906;DHT22;9585;51.018;4.282;2022-11-09T01:38:14;12.60;99.90
18906;DHT22;9585;51.018;4.282;2022-11-09T01:40:43;12.60;99.90
18906;DHT22;9585;51.018;4.282;2022-11-09T01:43:15;12.60;99.90
18906;DHT22;9585;51.018;4.282;2022-11-09T01:45:43;12.50;99.90
18906;DHT22;9585;51.018;4.282;2022-11-09T01:48:18;12.60;99.90
18906;DHT22;9585;51.018;4.282;2022-11-09T01:50:50;12.60;99.90
18906;DHT22;9585;51.018;4.282;2022-11-09T01:53:26;12.60;99.90
18906;DHT22;9585;51.018;4.282;2022-11-09T01:55:57;12.60;99.90
18906;DHT22;9585;51.018;4.282;2022-11-09T01:58:31;12.60;99.90
18906;DHT22;9585;51.018;4.282;2022-11-09T02:01:00;12.70;99.90
18906;DHT22;9585;51.018;4.282;2022-11-09T02:03:30;12.60;99.90
18906;DHT22;9585;51.018;4.282;2022-11-09T02:05:58;12.60;99.90
18906;DHT22;9585;51.018;4.282;2022-11-09T02:08:27;12.70;99.90
18906;DHT22;9585;51.018;4.282;2022-11-09T02:10:59;12.70;99.90
18906;DHT22;9585;51.018;4.282;2022-11-09T02:13:29;12.80;99.90
18906;DHT22;9585;51.018;4.282;2022-11-09T02:15:57;12.70;99.90
18906;DHT22;9585;51.018;4.282;2022-11-09T02:18:25;12.70;99.90
18906;DHT22;9585;51.018;4.282;2022-11-09T02:20:56;12.60;99.90
18906;DHT22;9585;51.018;4.282;2022-11-09T02:23:25;12.70;99.90
18906;DHT22;9585;51.018;4.282;2022-11-09T02:25:54;12.60;99.90
18906;DHT22;9585;51.018;4.282;2022-11-09T02:28:23;12.60;99.90
18906;DHT22;9585;51.018;4.282;2022-11-09T02:30:54;12.70;99.90
18906;DHT22;9585;51.018;4.282;2022-11-09T02:33:22;12.70;99.90
18906;DHT22;9585;51.018;4.282;2022-11-09T02:35:49;12.60;99.90
18906;DHT22;9585;51.018;4.282;2022-11-09T02:38:18;12.70;99.90
18906;DHT22;9585;51.018;4.282;2022-11-09T02:40:48;12.60;99.90
18906;DHT22;9585;51.018;4.282;2022-11-09T02:43:17;12.50;99.90
18906;DHT22;9585;51.018;4.282;2022-11-09T02:45:45;12.50;99.90
18906;DHT22;9585;51.018;4.282;2022-11-09T02:48:12;12.50;99.90
18906;DHT22;9585;51.018;4.282;2022-11-09T02:50:39;12.60;99.90
18906;DHT22;9585;51.018;4.282;2022-11-09T02:53:07;12.60;99.90
18906;DHT22;9585;51.018;4.282;2022-11-09T02:55:36;12.50;99.90
18906;DHT22;9585;51.018;4.282;2022-11-09T02:58:03;12.50;99.90
18906;DHT22;9585;51.018;4.282;2022-11-09T03:00:30;12.50;99.90
18906;DHT22;9585;51.018;4.282;2022-11-09T03:02:57;12.40;99.90
18906;DHT22;9585;51.018;4.282;2022-11-09T03:05:25;12.40;99.90
18906;DHT22;9585;51.018;4.282;2022-11-09T03:07:54;12.50;99.90
18906;DHT22;9585;51.018;4.282;2022-11-09T03:10:22;12.40;99.90
18906;DHT22;9585;51.018;4.282;2022-11-09T03:12:51;12.30;99.90
18906;DHT22;9585;51.018;4.282;2022-11-09T03:15:18;12.30;99.90
18906;DHT22;9585;51.018;4.282;2022-11-09T03:17:45;12.20;99.90
18906;DHT22;9585;51.018;4.282;2022-11-09T03:20:14;12.20;99.90
18906;DHT22;9585;51.018;4.282;2022-11-09T03:22:44;12.10;99.90
18906;DHT22;9585;51.018;4.282;2022-11-09T03:25:11;12.10;99.90
18906;DHT22;9585;51.018;4.282;2022-11-09T03:27:38;12.10;99.90
18906;DHT22;9585;51.018;4.282;2022-11-09T03:30:08;12.10;99.90
18906;DHT22;9585;51.018;4.282;2022-11-09T03:32:35;12.10;99.90
18906;DHT22;9585;51.018;4.282;2022-11-09T03:35:03;12.10;99.90
18906;DHT22;9585;51.018;4.282;2022-11-09T03:37:30;12.10;99.90
18906;DHT22;9585;51.018;4.282;2022-11-09T03:39:58;12.00;99.90
18906;DHT22;9585;51.018;4.282;2022-11-09T03:42:25;12.10;99.90
18906;DHT22;9585;51.018;4.282;2022-11-09T03:44:52;12.00;99.90
18906;DHT22;9585;51.018;4.282;2022-11-09T03:47:21;12.10;99.90
18906;DHT22;9585;51.018;4.282;2022-11-09T03:49:48;12.00;99.90
18906;DHT22;9585;51.018;4.282;2022-11-09T03:52:15;12.00;99.90
18906;DHT22;9585;51.018;4.282;2022-11-09T03:54:42;12.00;99.90
18906;DHT22;9585;51.018;4.282;2022-11-09T03:57:10;11.90;99.90
18906;DHT22;9585;51.018;4.282;2022-11-09T03:59:37;11.90;99.90
18906;DHT22;9585;51.018;4.282;2022-11-09T04:02:04;11.90;99.90
18906;DHT22;9585;51.018;4.282;2022-11-09T04:04:33;11.80;99.90
18906;DHT22;9585;51.018;4.282;2022-11-09T04:07:00;11.80;99.90
18906;DHT22;9585;51.018;4.282;2022-11-09T04:09:27;11.80;99.90
18906;DHT22;9585;51.018;4.282;2022-11-09T04:11:55;11.80;99.90
18906;DHT22;9585;51.018;4.282;2022-11-09T04:14:22;11.70;99.90
18906;DHT22;9585;51.018;4.282;2022-11-09T04:16:49;11.80;99.90
18906;DHT22;9585;51.018;4.282;2022-11-09T04:19:16;11.70;99.90
18906;DHT22;9585;51.018;4.282;2022-11-09T04:21:45;11.70;99.90
18906;DHT22;9585;51.018;4.282;2022-11-09T04:24:12;11.70;99.90
18906;DHT22;9585;51.018;4.282;2022-11-09T04:26:40;11.70;99.90
18906;DHT22;9585;51.018;4.282;2022-11-09T04:29:08;11.80;99.90
18906;DHT22;9585;51.018;4.282;2022-11-09T04:31:35;11.80;99.90
18906;DHT22;9585;51.018;4.282;2022-11-09T04:34:03;11.80;99.90
18906;DHT22;9585;51.018;4.282;2022-11-09T04:36:30;11.70;99.90
18906;DHT22;9585;51.018;4.282;2022-11-09T04:39:01;11.70;99.90
18906;DHT22;9585;51.018;4.282;2022-11-09T04:41:29;11.70;99.90
18906;DHT22;9585;51.018;4.282;2022-11-09T04:43:56;11.70;99.90
18906;DHT22;9585;51.018;4.282;2022-11-09T04:46:23;11.60;99.90
18906;DHT22;9585;51.018;4.282;2022-11-09T04:48:51;11.60;99.90
18906;DHT22;9585;51.018;4.282;2022-11-09T04:51:18;11.60;99.90
18906;DHT22;9585;51.018;4.282;2022-11-09T04:53:48;11.50;99.90
18906;DHT22;9585;51.018;4.282;2022-11-09T04:56:17;11.50;99.90
18906;DHT22;9585;51.018;4.282;2022-11-09T04:58:44;11.50;99.90
18906;DHT22;9585;51.018;4.282;2022-11-09T05:01:13;11.40;99.90
18906;DHT22;9585;51.018;4.282;2022-11-09T05:03:40;11.50;99.90
18906;DHT22;9585;51.018;4.282;2022-11-09T05:06:08;11.40;99.90
18906;DHT22;9585;51.018;4.282;2022-11-09T05:08:50;11.40;99.90
18906;DHT22;9585;51.018;4.282;2022-11-09T05:11:19;11.40;99.90
18906;DHT22;9585;51.018;4.282;2022-11-09T05:13:46;11.40;99.90
18906;DHT22;9585;51.018;4.282;2022-11-09T05:16:14;11.40;99.90
18906;DHT22;9585;51.018;4.282;2022-11-09T05:18:42;11.40;99.90
18906;DHT22;9585;51.018;4.282;2022-11-09T05:21:09;11.40;99.90
18906;DHT22;9585;51.018;4.282;2022-11-09T05:23:36;11.30;99.90
18906;DHT22;9585;51.018;4.282;2022-11-09T05:26:22;11.30;99.90
18906;DHT22;9585;51.018;4.282;2022-11-09T05:28:49;11.30;99.90
18906;DHT22;9585;51.018;4.282;2022-11-09T05:31:17;11.30;99.90
18906;DHT22;9585;51.018;4.282;2022-11-09T05:33:46;11.30;99.90
18906;DHT22;9585;51.018;4.282;2022-11-09T05:36:13;11.30;99.90
18906;DHT22;9585;51.018;4.282;2022-11-09T05:38:40;11.20;99.90
18906;DHT22;9585;51.018;4.282;2022-11-09T05:41:07;11.20;99.90
18906;DHT22;9585;51.018;4.282;2022-11-09T05:43:36;11.20;99.90
18906;DHT22;9585;51.018;4.282;2022-11-09T05:46:03;11.20;99.90
18906;DHT22;9585;51.018;4.282;2022-11-09T05:48:31;11.20;99.90
18906;DHT22;9585;51.018;4.282;2022-11-09T05:51:00;11.20;99.90
18906;DHT22;9585;51.018;4.282;2022-11-09T05:53:28;11.10;99.90
18906;DHT22;9585;51.018;4.282;2022-11-09T05:55:55;11.10;99.90
18906;DHT22;9585;51.018;4.282;2022-11-09T05:58:22;11.10;99.90
18906;DHT22;9585;51.018;4.282;2022-11-09T06:00:50;11.10;99.90
18906;DHT22;9585;51.018;4.282;2022-11-09T06:03:17;11.00;99.90
18906;DHT22;9585;51.018;4.282;2022-11-09T06:05:45;11.00;99.90
18906;DHT22;9585;51.018;4.282;2022-11-09T06:08:14;11.00;99.90
18906;DHT22;9585;51.018;4.282;2022-11-09T06:10:41;11.10;99.90
18906;DHT22;9585;51.018;4.282;2022-11-09T06:13:09;11.10;99.90
18906;DHT22;9585;51.018;4.282;2022-11-09T06:15:36;11.00;99.90
18906;DHT22;9585;51.018;4.282;2022-11-09T06:18:05;11.00;99.90
18906;DHT22;9585;51.018;4.282;2022-11-09T06:20:32;11.00;99.90
18906;DHT22;9585;51.018;4.282;2022-11-09T06:23:00;11.00;99.90
18906;DHT22;9585;51.018;4.282;2022-11-09T06:25:28;11.00;99.90
18906;DHT22;9585;51.018;4.282;2022-11-09T06:27:56;11.00;99.90
18906;DHT22;9585;51.018;4.282;2022-11-09T06:30:26;11.00;99.90
18906;DHT22;9585;51.018;4.282;2022-11-09T06:33:00;11.10;99.90
18906;DHT22;9585;51.018;4.282;2022-11-09T06:35:29;11.00;99.90
18906;DHT22;9585;51.018;4.282;2022-11-09T06:38:00;11.00;99.90
18906;DHT22;9585;51.018;4.282;2022-11-09T06:40:28;11.00;99.90
18906;DHT22;9585;51.018;4.282;2022-11-09T06:42:57;11.10;99.90
18906;DHT22;9585;51.018;4.282;2022-11-09T06:45:28;11.00;99.90
18906;DHT22;9585;51.018;4.282;2022-11-09T06:47:56;11.00;99.90
18906;DHT22;9585;51.018;4.282;2022-11-09T06:50:23;11.10;99.90
18906;DHT22;9585;51.018;4.282;2022-11-09T06:52:55;11.00;99.90
18906;DHT22;9585;51.018;4.282;2022-11-09T06:55:22;11.00;99.90
18906;DHT22;9585;51.018;4.282;2022-11-09T06:57:49;10.90;99.90
18906;DHT22;9585;51.018;4.282;2022-11-09T07:00:20;10.90;99.90
18906;DHT22;9585;51.018;4.282;2022-11-09T07:02:47;10.90;99.90
18906;DHT22;9585;51.018;4.282;2022-11-09T07:05:15;10.90;99.90
18906;DHT22;9585;51.018;4.282;2022-11-09T07:07:43;10.90;99.90
18906;DHT22;9585;51.018;4.282;2022-11-09T07:10:11;11.00;99.90
18906;DHT22;9585;51.018;4.282;2022-11-09T07:12:39;11.00;99.90
18906;DHT22;9585;51.018;4.282;2022-11-09T07:15:07;11.00;99.90
18906;DHT22;9585;51.018;4.282;2022-11-09T07:17:37;11.00;99.90
18906;DHT22;9585;51.018;4.282;2022-11-09T07:20:07;11.00;99.90
18906;DHT22;9585;51.018;4.282;2022-11-09T07:22:35;10.90;99.90
18906;DHT22;9585;51.018;4.282;2022-11-09T07:25:05;11.00;99.90
18906;DHT22;9585;51.018;4.282;2022-11-09T07:27:34;11.00;99.90
18906;DHT22;9585;51.018;4.282;2022-11-09T07:30:02;11.00;99.90
18906;DHT22;9585;51.018;4.282;2022-11-09T07:32:32;11.00;99.90
18906;DHT22;9585;51.018;4.282;2022-11-09T07:34:59;11.10;99.90
18906;DHT22;9585;51.018;4.282;2022-11-09T07:37:26;11.10;99.90
18906;DHT22;9585;51.018;4.282;2022-11-09T07:39:53;11.10;99.90
18906;DHT22;9585;51.018;4.282;2022-11-09T07:42:21;11.10;99.90
18906;DHT22;9585;51.018;4.282;2022-11-09T07:44:49;11.20;99.90
18906;DHT22;9585;51.018;4.282;2022-11-09T07:47:17;11.20;99.90
18906;DHT22;9585;51.018;4.282;2022-11-09T07:49:45;11.20;99.90
18906;DHT22;9585;51.018;4.282;2022-11-09T07:52:13;11.30;99.90
18906;DHT22;9585;51.018;4.282;2022-11-09T07:54:40;11.30;99.90
18906;DHT22;9585;51.018;4.282;2022-11-09T07:57:07;11.30;99.90
18906;DHT22;9585;51.018;4.282;2022-11-09T07:59:35;11.30;99.90
18906;DHT22;9585;51.018;4.282;2022-11-09T08:02:03;11.40;99.90
18906;DHT22;9585;51.018;4.282;2022-11-09T08:04:30;11.50;99.90
18906;DHT22;9585;51.018;4.282;2022-11-09T08:06:58;11.60;99.90
18906;DHT22;9585;51.018;4.282;2022-11-09T08:09:25;11.70;99.90
18906;DHT22;9585;51.018;4.282;2022-11-09T08:11:52;11.80;99.90
18906;DHT22;9585;51.018;4.282;2022-11-09T08:14:19;11.90;99.90
18906;DHT22;9585;51.018;4.282;2022-11-09T08:16:47;11.90;99.90
18906;DHT22;9585;51.018;4.282;2022-11-09T08:19:15;11.90;99.90
18906;DHT22;9585;51.018;4.282;2022-11-09T08:21:43;12.00;99.90
18906;DHT22;9585;51.018;4.282;2022-11-09T08:24:10;11.90;99.90
18906;DHT22;9585;51.018;4.282;2022-11-09T08:26:37;12.00;99.90
18906;DHT22;9585;51.018;4.282;2022-11-09T08:29:05;12.10;99.90
18906;DHT22;9585;51.018;4.282;2022-11-09T08:31:32;12.10;99.90
18906;DHT22;9585;51.018;4.282;2022-11-09T08:33:59;12.20;99.90
18906;DHT22;9585;51.018;4.282;2022-11-09T08:36:28;12.30;99.90
18906;DHT22;9585;51.018;4.282;2022-11-09T08:38:56;12.40;99.90
18906;DHT22;9585;51.018;4.282;2022-11-09T08:41:24;12.30;99.90
18906;DHT22;9585;51.018;4.282;2022-11-09T08:43:52;12.40;99.90
18906;DHT22;9585;51.018;4.282;2022-11-09T08:46:19;12.30;99.90
18906;DHT22;9585;51.018;4.282;2022-11-09T08:48:46;12.30;99.90
18906;DHT22;9585;51.018;4.282;2022-11-09T08:51:13;12.40;99.90
18906;DHT22;9585;51.018;4.282;2022-11-09T08:53:42;12.40;99.90
18906;DHT22;9585;51.018;4.282;2022-11-09T08:56:09;12.50;99.90
18906;DHT22;9585;51.018;4.282;2022-11-09T08:58:38;12.70;99.90
18906;DHT22;9585;51.018;4.282;2022-11-09T09:01:06;12.70;99.90
18906;DHT22;9585;51.018;4.282;2022-11-09T09:03:34;12.60;99.90
18906;DHT22;9585;51.018;4.282;2022-11-09T09:06:03;12.70;99.90
18906;DHT22;9585;51.018;4.282;2022-11-09T09:08:30;12.70;99.90
18906;DHT22;9585;51.018;4.282;2022-11-09T09:11:02;12.70;99.90
18906;DHT22;9585;51.018;4.282;2022-11-09T09:13:30;12.70;99.90
18906;DHT22;9585;51.018;4.282;2022-11-09T09:15:58;12.80;99.90
18906;DHT22;9585;51.018;4.282;2022-11-09T09:18:37;13.00;99.90
18906;DHT22;9585;51.018;4.282;2022-11-09T09:21:06;13.10;99.90
18906;DHT22;9585;51.018;4.282;2022-11-09T09:23:33;13.10;99.90
18906;DHT22;9585;51.018;4.282;2022-11-09T09:26:03;13.10;99.90
18906;DHT22;9585;51.018;4.282;2022-11-09T09:28:31;13.20;99.90
18906;DHT22;9585;51.018;4.282;2022-11-09T09:30:58;13.10;99.90
18906;DHT22;9585;51.018;4.282;2022-11-09T09:33:26;13.10;99.90
18906;DHT22;9585;51.018;4.282;2022-11-09T09:35:54;12.90;99.90
18906;DHT22;9585;51.018;4.282;2022-11-09T09:38:22;12.80;99.90
18906;DHT22;9585;51.018;4.282;2022-11-09T09:40:56;12.70;99.90
18906;DHT22;9585;51.018;4.282;2022-11-09T09:43:29;12.90;99.90
18906;DHT22;9585;51.018;4.282;2022-11-09T09:45:58;13.10;99.90
18906;DHT22;9585;51.018;4.282;2022-11-09T09:48:32;13.40;99.90
18906;DHT22;9585;51.018;4.282;2022-11-09T09:51:07;13.50;99.90
18906;DHT22;9585;51.018;4.282;2022-11-09T09:53:41;13.70;99.90
18906;DHT22;9585;51.018;4.282;2022-11-09T09:56:13;13.90;99.90
18906;DHT22;9585;51.018;4.282;2022-11-09T09:58:46;14.10;99.90
18906;DHT22;9585;51.018;4.282;2022-11-09T10:01:17;14.30;99.90
18906;DHT22;9585;51.018;4.282;2022-11-09T10:03:45;14.10;99.90
18906;DHT22;9585;51.018;4.282;2022-11-09T10:06:31;13.90;99.90
18906;DHT22;9585;51.018;4.282;2022-11-09T10:09:10;13.70;99.90
18906;DHT22;9585;51.018;4.282;2022-11-09T10:11:47;13.70;99.90
18906;DHT22;9585;51.018;4.282;2022-11-09T10:14:45;13.50;99.90
18906;DHT22;9585;51.018;4.282;2022-11-09T10:17:20;13.30;99.90
18906;DHT22;9585;51.018;4.282;2022-11-09T10:20:09;13.30;99.90
18906;DHT22;9585;51.018;4.282;2022-11-09T10:22:47;13.20;99.90
18906;DHT22;9585;51.018;4.282;2022-11-09T10:25:22;13.40;99.90
18906;DHT22;9585;51.018;4.282;2022-11-09T10:27:53;13.60;99.90
18906;DHT22;9585;51.018;4.282;2022-11-09T10:30:23;13.90;99.90
18906;DHT22;9585;51.018;4.282;2022-11-09T10:32:54;14.00;99.90
18906;DHT22;9585;51.018;4.282;2022-11-09T10:35:25;14.00;99.90
18906;DHT22;9585;51.018;4.282;2022-11-09T10:37:55;14.00;99.90
18906;DHT22;9585;51.018;4.282;2022-11-09T10:40:25;13.90;99.90
18906;DHT22;9585;51.018;4.282;2022-11-09T10:42:54;14.00;99.90
18906;DHT22;9585;51.018;4.282;2022-11-09T10:45:31;14.00;99.90
18906;DHT22;9585;51.018;4.282;2022-11-09T10:47:59;14.10;99.90
18906;DHT22;9585;51.018;4.282;2022-11-09T10:50:31;14.20;99.90
18906;DHT22;9585;51.018;4.282;2022-11-09T10:53:13;14.20;99.90
18906;DHT22;9585;51.018;4.282;2022-11-09T10:55:52;14.30;99.90
18906;DHT22;9585;51.018;4.282;2022-11-09T10:58:25;14.30;99.90
18906;DHT22;9585;51.018;4.282;2022-11-09T11:01:02;14.30;99.90
18906;DHT22;9585;51.018;4.282;2022-11-09T11:03:31;14.40;99.90
18906;DHT22;9585;51.018;4.282;2022-11-09T11:06:00;14.30;99.90
18906;DHT22;9585;51.018;4.282;2022-11-09T11:08:35;14.20;99.90
18906;DHT22;9585;51.018;4.282;2022-11-09T11:11:24;14.20;99.90
18906;DHT22;9585;51.018;4.282;2022-11-09T11:14:13;14.20;99.90
18906;DHT22;9585;51.018;4.282;2022-11-09T11:16:43;14.30;99.90
18906;DHT22;9585;51.018;4.282;2022-11-09T11:19:34;14.30;99.90
18906;DHT22;9585;51.018;4.282;2022-11-09T11:22:18;14.20;99.90
18906;DHT22;9585;51.018;4.282;2022-11-09T11:24:52;14.20;99.90
18906;DHT22;9585;51.018;4.282;2022-11-09T11:27:26;14.10;99.90
18906;DHT22;9585;51.018;4.282;2022-11-09T11:30:02;14.00;99.90
18906;DHT22;9585;51.018;4.282;2022-11-09T11:32:31;13.90;99.90
18906;DHT22;9585;51.018;4.282;2022-11-09T11:34:59;13.80;99.90
18906;DHT22;9585;51.018;4.282;2022-11-09T11:37:38;13.80;99.90
18906;DHT22;9585;51.018;4.282;2022-11-09T11:40:12;13.80;99.90
18906;DHT22;9585;51.018;4.282;2022-11-09T11:42:58;13.80;99.90
18906;DHT22;9585;51.018;4.282;2022-11-09T11:45:31;13.90;99.90
18906;DHT22;9585;51.018;4.282;2022-11-09T11:48:21;13.90;99.90
18906;DHT22;9585;51.018;4.282;2022-11-09T11:50:55;14.10;99.90
18906;DHT22;9585;51.018;4.282;2022-11-09T11:53:37;14.10;99.90
18906;DHT22;9585;51.018;4.282;2022-11-09T11:56:20;13.90;99.90
18906;DHT22;9585;51.018;4.282;2022-11-09T12:01:53;13.60;99.90
18906;DHT22;9585;51.018;4.282;2022-11-09T12:05:20;13.40;99.90
18906;DHT22;9585;51.018;4.282;2022-11-09T12:07:54;13.30;99.90
18906;DHT22;9585;51.018;4.282;2022-11-09T12:10:33;13.10;99.90
18906;DHT22;9585;51.018;4.282;2022-11-09T12:13:12;13.10;99.90
18906;DHT22;9585;51.018;4.282;2022-11-09T12:15:49;13.10;99.90
18906;DHT22;9585;51.018;4.282;2022-11-09T12:18:32;13.00;99.90
18906;DHT22;9585;51.018;4.282;2022-11-09T12:21:13;13.00;99.90
18906;DHT22;9585;51.018;4.282;2022-11-09T12:26:55;13.10;99.90
18906;DHT22;9585;51.018;4.282;2022-11-09T12:29:28;13.40;99.90
18906;DHT22;9585;51.018;4.282;2022-11-09T12:32:08;13.60;99.90
18906;DHT22;9585;51.018;4.282;2022-11-09T12:34:45;13.80;99.90
18906;DHT22;9585;51.018;4.282;2022-11-09T12:37:17;13.80;99.90
18906;DHT22;9585;51.018;4.282;2022-11-09T12:39:49;13.80;99.90
18906;DHT22;9585;51.018;4.282;2022-11-09T12:42:24;13.90;99.90
18906;DHT22;9585;51.018;4.282;2022-11-09T12:45:00;13.90;99.90
18906;DHT22;9585;51.018;4.282;2022-11-09T12:47:36;13.80;99.90
18906;DHT22;9585;51.018;4.282;2022-11-09T12:50:04;13.80;99.90
18906;DHT22;9585;51.018;4.282;2022-11-09T12:52:33;13.90;99.90
18906;DHT22;9585;51.018;4.282;2022-11-09T12:55:03;13.90;99.90
18906;DHT22;9585;51.018;4.282;2022-11-09T12:57:31;13.80;99.90
18906;DHT22;9585;51.018;4.282;2022-11-09T12:59:59;13.80;99.90
18906;DHT22;9585;51.018;4.282;2022-11-09T13:02:29;13.70;99.90
18906;DHT22;9585;51.018;4.282;2022-11-09T13:04:58;13.70;99.90
18906;DHT22;9585;51.018;4.282;2022-11-09T13:07:47;13.60;99.90
18906;DHT22;9585;51.018;4.282;2022-11-09T13:10:30;13.70;99.90
18906;DHT22;9585;51.018;4.282;2022-11-09T13:13:13;13.70;99.90
18906;DHT22;9585;51.018;4.282;2022-11-09T13:16:03;13.70;99.90
18906;DHT22;9585;51.018;4.282;2022-11-09T13:18:47;13.60;99.90
18906;DHT22;9585;51.018;4.282;2022-11-09T13:21:36;13.70;99.90
18906;DHT22;9585;51.018;4.282;2022-11-09T13:27:42;13.70;99.90
18906;DHT22;9585;51.018;4.282;2022-11-09T13:30:36;13.80;99.90
18906;DHT22;9585;51.018;4.282;2022-11-09T13:33:25;13.80;99.90
18906;DHT22;9585;51.018;4.282;2022-11-09T13:36:12;13.70;99.90
18906;DHT22;9585;51.018;4.282;2022-11-09T13:38:40;13.70;99.90
18906;DHT22;9585;51.018;4.282;2022-11-09T13:41:41;13.70;99.90
18906;DHT22;9585;51.018;4.282;2022-11-09T13:44:28;13.80;99.90
18906;DHT22;9585;51.018;4.282;2022-11-09T13:46:55;14.00;99.90
18906;DHT22;9585;51.018;4.282;2022-11-09T13:49:45;14.10;99.90
18906;DHT22;9585;51.018;4.282;2022-11-09T13:52:37;14.20;99.90
18906;DHT22;9585;51.018;4.282;2022-11-09T13:58:03;14.00;99.90
18906;DHT22;9585;51.018;4.282;2022-11-09T14:00:34;14.10;99.90
18906;DHT22;9585;51.018;4.282;2022-11-09T14:03:03;14.20;99.90
18906;DHT22;9585;51.018;4.282;2022-11-09T14:05:42;14.10;99.90
18906;DHT22;9585;51.018;4.282;2022-11-09T14:08:19;14.10;99.90
18906;DHT22;9585;51.018;4.282;2022-11-09T14:14:15;14.00;99.90
18906;DHT22;9585;51.018;4.282;2022-11-09T14:16:51;13.80;99.90
18906;DHT22;9585;51.018;4.282;2022-11-09T14:19:27;13.60;99.90
18906;DHT22;9585;51.018;4.282;2022-11-09T14:21:56;13.50;99.90
18906;DHT22;9585;51.018;4.282;2022-11-09T14:24:25;13.40;99.90
18906;DHT22;9585;51.018;4.282;2022-11-09T14:27:12;13.40;99.90
18906;DHT22;9585;51.018;4.282;2022-11-09T14:29:52;13.40;99.90
18906;DHT22;9585;51.018;4.282;2022-11-09T14:32:39;13.30;99.90
18906;DHT22;9585;51.018;4.282;2022-11-09T14:35:11;13.20;99.90
18906;DHT22;9585;51.018;4.282;2022-11-09T14:37:42;13.10;99.90
18906;DHT22;9585;51.018;4.282;2022-11-09T14:40:19;13.00;99.90
18906;DHT22;9585;51.018;4.282;2022-11-09T14:42:49;13.00;99.90
18906;DHT22;9585;51.018;4.282;2022-11-09T14:45:17;13.00;99.90
18906;DHT22;9585;51.018;4.282;2022-11-09T14:47:48;13.00;99.90
18906;DHT22;9585;51.018;4.282;2022-11-09T14:50:20;13.00;99.90
18906;DHT22;9585;51.018;4.282;2022-11-09T14:52:48;12.90;99.90
18906;DHT22;9585;51.018;4.282;2022-11-09T14:55:17;12.80;99.90
18906;DHT22;9585;51.018;4.282;2022-11-09T14:57:46;12.80;99.90
18906;DHT22;9585;51.018;4.282;2022-11-09T15:00:29;12.70;99.90
18906;DHT22;9585;51.018;4.282;2022-11-09T15:03:19;12.70;99.90
18906;DHT22;9585;51.018;4.282;2022-11-09T15:05:47;12.60;99.90
18906;DHT22;9585;51.018;4.282;2022-11-09T15:08:17;12.50;99.90
18906;DHT22;9585;51.018;4.282;2022-11-09T15:10:49;12.40;99.90
18906;DHT22;9585;51.018;4.282;2022-11-09T15:13:19;12.50;99.90
18906;DHT22;9585;51.018;4.282;2022-11-09T15:15:54;12.50;99.90
18906;DHT22;9585;51.018;4.282;2022-11-09T15:18:25;12.40;99.90
18906;DHT22;9585;51.018;4.282;2022-11-09T15:21:11;12.30;99.90
18906;DHT22;9585;51.018;4.282;2022-11-09T15:23:40;12.30;99.90
18906;DHT22;9585;51.018;4.282;2022-11-09T15:26:24;12.30;99.90
18906;DHT22;9585;51.018;4.282;2022-11-09T15:28:51;12.30;99.90
18906;DHT22;9585;51.018;4.282;2022-11-09T15:31:19;12.20;99.90
18906;DHT22;9585;51.018;4.282;2022-11-09T15:33:50;12.20;99.90
18906;DHT22;9585;51.018;4.282;2022-11-09T15:39:10;12.10;99.90
18906;DHT22;9585;51.018;4.282;2022-11-09T15:41:38;12.10;99.90
18906;DHT22;9585;51.018;4.282;2022-11-09T15:44:06;12.00;99.90
18906;DHT22;9585;51.018;4.282;2022-11-09T15:46:36;11.90;99.90
18906;DHT22;9585;51.018;4.282;2022-11-09T15:49:16;11.90;99.90
18906;DHT22;9585;51.018;4.282;2022-11-09T15:51:43;11.90;99.90
18906;DHT22;9585;51.018;4.282;2022-11-09T15:54:11;11.90;99.90
18906;DHT22;9585;51.018;4.282;2022-11-09T15:56:39;11.80;99.90
18906;DHT22;9585;51.018;4.282;2022-11-09T16:01:37;11.80;99.90
18906;DHT22;9585;51.018;4.282;2022-11-09T16:04:04;11.70;99.90
18906;DHT22;9585;51.018;4.282;2022-11-09T16:06:33;11.70;99.90
18906;DHT22;9585;51.018;4.282;2022-11-09T16:09:00;11.70;99.90
18906;DHT22;9585;51.018;4.282;2022-11-09T16:11:27;11.60;99.90
18906;DHT22;9585;51.018;4.282;2022-11-09T16:13:55;11.60;99.90
18906;DHT22;9585;51.018;4.282;2022-11-09T16:16:22;11.50;99.90
18906;DHT22;9585;51.018;4.282;2022-11-09T16:18:49;11.50;99.90
18906;DHT22;9585;51.018;4.282;2022-11-09T16:21:16;11.50;99.90
18906;DHT22;9585;51.018;4.282;2022-11-09T16:23:45;11.40;99.90
18906;DHT22;9585;51.018;4.282;2022-11-09T16:26:14;11.40;99.90
18906;DHT22;9585;51.018;4.282;2022-11-09T16:28:42;11.40;99.90
18906;DHT22;9585;51.018;4.282;2022-11-09T16:31:10;11.40;99.90